Terminal Aerodrome Forecast
Issued by NWS Northern Indiana

Home | Current Version | Previous Version | Text Only | Print | Product List | Glossary On
Versions: 1 2 3 4 5 6 7 8 9 10 11 12 13
000
FTUS43 KIWX 292300
TAFFWA
TAF
KFWA 292326Z 3000/3024 16008KT P6SM SCT070
     FM301400 22015G22KT P6SM SCT100
     FM302000 22017G23KT 6SM TSRA BKN035CB=

USA.gov is the U.S. government's official web portal to all federal, state and local government web resources and services.